sensor_id;sensor_type;location;lat;lon;timestamp;temperature;humidity
25550;DHT22;13444;50.562;7.262;2023-06-22T00:01:27;22.40;99.90
25550;DHT22;13444;50.562;7.262;2023-06-22T00:03:52;22.40;99.90
25550;DHT22;13444;50.562;7.262;2023-06-22T00:06:18;22.50;99.90
25550;DHT22;13444;50.562;7.262;2023-06-22T00:08:44;22.50;99.90
25550;DHT22;13444;50.562;7.262;2023-06-22T00:11:09;22.50;99.90
25550;DHT22;13444;50.562;7.262;2023-06-22T00:13:35;22.50;99.90
25550;DHT22;13444;50.562;7.262;2023-06-22T00:16:00;22.50;99.90
25550;DHT22;13444;50.562;7.262;2023-06-22T00:18:26;22.60;99.90
25550;DHT22;13444;50.562;7.262;2023-06-22T00:20:54;22.60;99.90
25550;DHT22;13444;50.562;7.262;2023-06-22T00:23:23;22.60;99.90
25550;DHT22;13444;50.562;7.262;2023-06-22T00:25:49;22.60;99.90
25550;DHT22;13444;50.562;7.262;2023-06-22T00:28:15;22.60;99.90
25550;DHT22;13444;50.562;7.262;2023-06-22T00:30:40;22.70;99.90
25550;DHT22;13444;50.562;7.262;2023-06-22T00:33:06;22.70;99.90
25550;DHT22;13444;50.562;7.262;2023-06-22T00:35:33;22.70;99.90
25550;DHT22;13444;50.562;7.262;2023-06-22T00:38:00;22.60;99.90
25550;DHT22;13444;50.562;7.262;2023-06-22T00:40:30;22.60;99.90
25550;DHT22;13444;50.562;7.262;2023-06-22T00:42:56;22.60;99.90
25550;DHT22;13444;50.562;7.262;2023-06-22T00:45:25;22.60;99.90
25550;DHT22;13444;50.562;7.262;2023-06-22T00:47:52;22.60;99.90
25550;DHT22;13444;50.562;7.262;2023-06-22T00:50:20;22.60;99.90
25550;DHT22;13444;50.562;7.262;2023-06-22T00:52:49;22.60;99.90
25550;DHT22;13444;50.562;7.262;2023-06-22T00:55:16;22.60;99.90
25550;DHT22;13444;50.562;7.262;2023-06-22T00:57:45;22.60;99.90
25550;DHT22;13444;50.562;7.262;2023-06-22T01:00:12;22.60;99.90
25550;DHT22;13444;50.562;7.262;2023-06-22T01:02:42;22.60;99.90
25550;DHT22;13444;50.562;7.262;2023-06-22T01:05:12;22.50;99.90
25550;DHT22;13444;50.562;7.262;2023-06-22T01:08:05;22.40;99.90
25550;DHT22;13444;50.562;7.262;2023-06-22T01:13:10;22.30;99.90
25550;DHT22;13444;50.562;7.262;2023-06-22T01:15:45;22.20;99.90
25550;DHT22;13444;50.562;7.262;2023-06-22T01:18:13;22.20;99.90
25550;DHT22;13444;50.562;7.262;2023-06-22T01:20:40;22.20;99.90
25550;DHT22;13444;50.562;7.262;2023-06-22T01:23:18;22.20;99.90
25550;DHT22;13444;50.562;7.262;2023-06-22T01:26:08;22.20;99.90
25550;DHT22;13444;50.562;7.262;2023-06-22T01:28:50;22.30;99.90
25550;DHT22;13444;50.562;7.262;2023-06-22T01:31:18;22.30;99.90
25550;DHT22;13444;50.562;7.262;2023-06-22T01:33:48;22.30;99.90
25550;DHT22;13444;50.562;7.262;2023-06-22T01:36:16;22.30;99.90
25550;DHT22;13444;50.562;7.262;2023-06-22T01:38:43;22.30;99.90
25550;DHT22;13444;50.562;7.262;2023-06-22T01:41:10;22.30;99.90
25550;DHT22;13444;50.562;7.262;2023-06-22T01:43:36;22.30;99.90
25550;DHT22;13444;50.562;7.262;2023-06-22T01:46:04;22.30;99.90
25550;DHT22;13444;50.562;7.262;2023-06-22T01:48:30;22.40;99.90
25550;DHT22;13444;50.562;7.262;2023-06-22T01:50:57;22.40;99.90
25550;DHT22;13444;50.562;7.262;2023-06-22T01:53:24;22.40;99.90
25550;DHT22;13444;50.562;7.262;2023-06-22T01:55:49;22.40;99.90
25550;DHT22;13444;50.562;7.262;2023-06-22T01:58:15;22.40;99.90
25550;DHT22;13444;50.562;7.262;2023-06-22T02:00:57;22.40;99.90
25550;DHT22;13444;50.562;7.262;2023-06-22T02:03:28;22.40;99.90
25550;DHT22;13444;50.562;7.262;2023-06-22T02:06:01;22.50;99.90
25550;DHT22;13444;50.562;7.262;2023-06-22T02:08:53;22.40;99.90
25550;DHT22;13444;50.562;7.262;2023-06-22T02:11:21;22.40;99.90
25550;DHT22;13444;50.562;7.262;2023-06-22T02:13:47;22.40;99.90
25550;DHT22;13444;50.562;7.262;2023-06-22T02:16:14;22.30;99.90
25550;DHT22;13444;50.562;7.262;2023-06-22T02:18:48;22.30;99.90
25550;DHT22;13444;50.562;7.262;2023-06-22T02:21:16;22.20;99.90
25550;DHT22;13444;50.562;7.262;2023-06-22T02:23:42;22.20;99.90
25550;DHT22;13444;50.562;7.262;2023-06-22T02:26:07;22.10;99.90
25550;DHT22;13444;50.562;7.262;2023-06-22T02:28:33;22.10;99.90
25550;DHT22;13444;50.562;7.262;2023-06-22T02:30:59;22.10;99.90
25550;DHT22;13444;50.562;7.262;2023-06-22T02:33:24;22.00;99.90
25550;DHT22;13444;50.562;7.262;2023-06-22T02:35:50;22.00;99.90
25550;DHT22;13444;50.562;7.262;2023-06-22T02:38:16;21.90;99.90
25550;DHT22;13444;50.562;7.262;2023-06-22T02:40:42;22.00;99.90
25550;DHT22;13444;50.562;7.262;2023-06-22T02:43:08;22.00;99.90
25550;DHT22;13444;50.562;7.262;2023-06-22T02:45:33;22.00;99.90
25550;DHT22;13444;50.562;7.262;2023-06-22T02:47:59;22.00;99.90
25550;DHT22;13444;50.562;7.262;2023-06-22T02:50:24;22.10;99.90
25550;DHT22;13444;50.562;7.262;2023-06-22T02:52:50;22.10;99.90
25550;DHT22;13444;50.562;7.262;2023-06-22T02:55:16;22.00;99.90
25550;DHT22;13444;50.562;7.262;2023-06-22T02:57:41;21.90;99.90
25550;DHT22;13444;50.562;7.262;2023-06-22T03:00:09;21.90;99.90
25550;DHT22;13444;50.562;7.262;2023-06-22T03:02:49;21.80;99.90
25550;DHT22;13444;50.562;7.262;2023-06-22T03:05:15;21.70;99.90
25550;DHT22;13444;50.562;7.262;2023-06-22T03:07:43;21.60;99.90
25550;DHT22;13444;50.562;7.262;2023-06-22T03:10:10;21.60;99.90
25550;DHT22;13444;50.562;7.262;2023-06-22T03:12:37;21.60;99.90
25550;DHT22;13444;50.562;7.262;2023-06-22T03:15:08;21.50;99.90
25550;DHT22;13444;50.562;7.262;2023-06-22T03:17:34;21.50;99.90
25550;DHT22;13444;50.562;7.262;2023-06-22T03:20:01;21.60;99.90
25550;DHT22;13444;50.562;7.262;2023-06-22T03:22:26;21.60;99.90
25550;DHT22;13444;50.562;7.262;2023-06-22T03:24:52;21.70;99.90
25550;DHT22;13444;50.562;7.262;2023-06-22T03:27:17;21.70;99.90
25550;DHT22;13444;50.562;7.262;2023-06-22T03:29:44;21.80;99.90
25550;DHT22;13444;50.562;7.262;2023-06-22T03:32:10;21.80;99.90
25550;DHT22;13444;50.562;7.262;2023-06-22T03:34:35;21.90;99.90
25550;DHT22;13444;50.562;7.262;2023-06-22T03:37:04;21.90;99.90
25550;DHT22;13444;50.562;7.262;2023-06-22T03:39:29;21.90;99.90
25550;DHT22;13444;50.562;7.262;2023-06-22T03:41:55;21.90;99.90
25550;DHT22;13444;50.562;7.262;2023-06-22T03:44:21;21.90;99.90
25550;DHT22;13444;50.562;7.262;2023-06-22T03:46:46;22.00;99.90
25550;DHT22;13444;50.562;7.262;2023-06-22T03:49:12;22.10;99.90
25550;DHT22;13444;50.562;7.262;2023-06-22T03:51:37;22.10;99.90
25550;DHT22;13444;50.562;7.262;2023-06-22T03:54:03;22.20;99.90
25550;DHT22;13444;50.562;7.262;2023-06-22T03:56:28;22.20;99.90
25550;DHT22;13444;50.562;7.262;2023-06-22T03:58:54;22.20;99.90
25550;DHT22;13444;50.562;7.262;2023-06-22T04:01:19;22.20;99.90
25550;DHT22;13444;50.562;7.262;2023-06-22T04:03:45;22.20;99.90
25550;DHT22;13444;50.562;7.262;2023-06-22T04:06:13;22.30;99.90
25550;DHT22;13444;50.562;7.262;2023-06-22T04:08:39;22.40;99.90
25550;DHT22;13444;50.562;7.262;2023-06-22T04:11:04;22.40;99.90
25550;DHT22;13444;50.562;7.262;2023-06-22T04:13:30;22.40;99.90
25550;DHT22;13444;50.562;7.262;2023-06-22T04:15:56;22.40;99.90
25550;DHT22;13444;50.562;7.262;2023-06-22T04:18:21;22.50;99.90
25550;DHT22;13444;50.562;7.262;2023-06-22T04:20:47;22.50;99.90
25550;DHT22;13444;50.562;7.262;2023-06-22T04:23:13;22.50;99.90
25550;DHT22;13444;50.562;7.262;2023-06-22T04:25:39;22.50;99.90
25550;DHT22;13444;50.562;7.262;2023-06-22T04:28:04;22.50;99.90
25550;DHT22;13444;50.562;7.262;2023-06-22T04:30:33;22.50;99.90
25550;DHT22;13444;50.562;7.262;2023-06-22T04:32:58;22.40;99.90
25550;DHT22;13444;50.562;7.262;2023-06-22T04:35:24;22.10;99.90
25550;DHT22;13444;50.562;7.262;2023-06-22T04:37:50;21.90;99.90
25550;DHT22;13444;50.562;7.262;2023-06-22T04:40:22;21.60;99.90
25550;DHT22;13444;50.562;7.262;2023-06-22T04:42:48;21.60;99.90
25550;DHT22;13444;50.562;7.262;2023-06-22T04:45:19;21.50;99.90
25550;DHT22;13444;50.562;7.262;2023-06-22T04:47:45;21.60;99.90
25550;DHT22;13444;50.562;7.262;2023-06-22T04:50:12;21.80;99.90
25550;DHT22;13444;50.562;7.262;2023-06-22T04:52:37;21.90;99.90
25550;DHT22;13444;50.562;7.262;2023-06-22T04:55:03;22.10;99.90
25550;DHT22;13444;50.562;7.262;2023-06-22T04:57:29;22.10;99.90
25550;DHT22;13444;50.562;7.262;2023-06-22T04:59:59;22.00;99.90
25550;DHT22;13444;50.562;7.262;2023-06-22T05:02:36;21.90;99.90
25550;DHT22;13444;50.562;7.262;2023-06-22T05:05:03;21.70;99.90
25550;DHT22;13444;50.562;7.262;2023-06-22T05:07:36;21.70;99.90
25550;DHT22;13444;50.562;7.262;2023-06-22T05:10:02;21.70;99.90
25550;DHT22;13444;50.562;7.262;2023-06-22T05:12:29;21.70;99.90
25550;DHT22;13444;50.562;7.262;2023-06-22T05:14:55;21.80;99.90
25550;DHT22;13444;50.562;7.262;2023-06-22T05:17:20;22.00;99.90
25550;DHT22;13444;50.562;7.262;2023-06-22T05:19:46;22.10;99.90
25550;DHT22;13444;50.562;7.262;2023-06-22T05:22:15;22.20;99.90
25550;DHT22;13444;50.562;7.262;2023-06-22T05:24:41;22.30;99.90
25550;DHT22;13444;50.562;7.262;2023-06-22T05:27:08;22.40;99.90
25550;DHT22;13444;50.562;7.262;2023-06-22T05:29:33;22.50;99.90
25550;DHT22;13444;50.562;7.262;2023-06-22T05:31:59;22.60;99.90
25550;DHT22;13444;50.562;7.262;2023-06-22T05:34:24;22.70;99.90
25550;DHT22;13444;50.562;7.262;2023-06-22T05:36:50;22.80;99.90
25550;DHT22;13444;50.562;7.262;2023-06-22T05:39:15;22.90;99.90
25550;DHT22;13444;50.562;7.262;2023-06-22T05:41:41;22.80;99.90
25550;DHT22;13444;50.562;7.262;2023-06-22T05:44:06;22.80;99.90
25550;DHT22;13444;50.562;7.262;2023-06-22T05:46:32;22.70;99.90
25550;DHT22;13444;50.562;7.262;2023-06-22T05:48:58;22.70;99.90
25550;DHT22;13444;50.562;7.262;2023-06-22T05:51:23;22.70;99.90
25550;DHT22;13444;50.562;7.262;2023-06-22T05:53:49;22.90;99.90
25550;DHT22;13444;50.562;7.262;2023-06-22T05:56:18;23.10;99.90
25550;DHT22;13444;50.562;7.262;2023-06-22T05:58:44;23.10;99.90
25550;DHT22;13444;50.562;7.262;2023-06-22T06:01:09;23.10;99.90
25550;DHT22;13444;50.562;7.262;2023-06-22T06:03:35;23.20;99.90
25550;DHT22;13444;50.562;7.262;2023-06-22T06:06:06;23.40;99.90
25550;DHT22;13444;50.562;7.262;2023-06-22T06:08:32;23.50;99.90
25550;DHT22;13444;50.562;7.262;2023-06-22T06:10:57;23.40;99.90
25550;DHT22;13444;50.562;7.262;2023-06-22T06:13:23;23.30;99.90
25550;DHT22;13444;50.562;7.262;2023-06-22T06:15:49;23.30;99.90
25550;DHT22;13444;50.562;7.262;2023-06-22T06:18:17;23.40;99.90
25550;DHT22;13444;50.562;7.262;2023-06-22T06:20:42;23.50;99.90
25550;DHT22;13444;50.562;7.262;2023-06-22T06:23:08;23.70;99.90
25550;DHT22;13444;50.562;7.262;2023-06-22T06:25:33;23.80;99.90
25550;DHT22;13444;50.562;7.262;2023-06-22T06:27:59;23.90;99.90
25550;DHT22;13444;50.562;7.262;2023-06-22T06:30:25;24.00;99.90
25550;DHT22;13444;50.562;7.262;2023-06-22T06:32:50;24.00;99.90
25550;DHT22;13444;50.562;7.262;2023-06-22T06:35:16;24.10;99.90
25550;DHT22;13444;50.562;7.262;2023-06-22T06:37:47;24.00;99.90
25550;DHT22;13444;50.562;7.262;2023-06-22T06:40:14;24.10;99.90
25550;DHT22;13444;50.562;7.262;2023-06-22T06:42:42;24.10;99.90
25550;DHT22;13444;50.562;7.262;2023-06-22T06:45:16;24.10;99.90
25550;DHT22;13444;50.562;7.262;2023-06-22T06:47:42;24.20;99.90
25550;DHT22;13444;50.562;7.262;2023-06-22T06:50:08;24.30;99.90
25550;DHT22;13444;50.562;7.262;2023-06-22T06:52:35;24.40;99.90
25550;DHT22;13444;50.562;7.262;2023-06-22T06:55:00;24.50;99.90
25550;DHT22;13444;50.562;7.262;2023-06-22T06:57:26;24.60;99.90
25550;DHT22;13444;50.562;7.262;2023-06-22T06:59:56;24.70;99.90
25550;DHT22;13444;50.562;7.262;2023-06-22T07:02:22;24.70;99.90
25550;DHT22;13444;50.562;7.262;2023-06-22T07:04:48;24.70;99.90
25550;DHT22;13444;50.562;7.262;2023-06-22T07:07:14;24.90;99.90
25550;DHT22;13444;50.562;7.262;2023-06-22T07:09:40;25.10;99.90
25550;DHT22;13444;50.562;7.262;2023-06-22T07:12:05;25.30;99.90
25550;DHT22;13444;50.562;7.262;2023-06-22T07:14:31;25.50;99.90
25550;DHT22;13444;50.562;7.262;2023-06-22T07:16:57;25.60;99.90
25550;DHT22;13444;50.562;7.262;2023-06-22T07:19:27;25.80;99.90
25550;DHT22;13444;50.562;7.262;2023-06-22T07:21:54;25.90;99.90
25550;DHT22;13444;50.562;7.262;2023-06-22T07:24:23;25.90;99.90
25550;DHT22;13444;50.562;7.262;2023-06-22T07:26:50;26.00;99.90
25550;DHT22;13444;50.562;7.262;2023-06-22T07:29:17;26.20;99.90
25550;DHT22;13444;50.562;7.262;2023-06-22T07:31:42;26.30;99.90
25550;DHT22;13444;50.562;7.262;2023-06-22T07:34:08;26.50;99.90
25550;DHT22;13444;50.562;7.262;2023-06-22T07:36:34;26.70;99.90
25550;DHT22;13444;50.562;7.262;2023-06-22T07:39:01;26.90;99.90
25550;DHT22;13444;50.562;7.262;2023-06-22T07:41:28;27.00;99.90
25550;DHT22;13444;50.562;7.262;2023-06-22T07:43:53;27.20;99.90
25550;DHT22;13444;50.562;7.262;2023-06-22T07:46:19;27.40;99.90
25550;DHT22;13444;50.562;7.262;2023-06-22T07:48:44;27.50;99.90
25550;DHT22;13444;50.562;7.262;2023-06-22T07:51:10;27.60;99.90
25550;DHT22;13444;50.562;7.262;2023-06-22T07:53:40;27.60;99.90
25550;DHT22;13444;50.562;7.262;2023-06-22T07:56:06;27.70;99.90
25550;DHT22;13444;50.562;7.262;2023-06-22T07:58:32;27.70;99.90
25550;DHT22;13444;50.562;7.262;2023-06-22T08:00:58;27.50;99.90
25550;DHT22;13444;50.562;7.262;2023-06-22T08:03:24;27.60;99.90
25550;DHT22;13444;50.562;7.262;2023-06-22T08:05:50;27.70;99.90
25550;DHT22;13444;50.562;7.262;2023-06-22T08:08:15;27.80;99.90
25550;DHT22;13444;50.562;7.262;2023-06-22T08:10:42;27.90;99.90
25550;DHT22;13444;50.562;7.262;2023-06-22T08:13:08;28.00;99.90
25550;DHT22;13444;50.562;7.262;2023-06-22T08:15:33;28.20;99.90
25550;DHT22;13444;50.562;7.262;2023-06-22T08:17:59;28.40;99.90
25550;DHT22;13444;50.562;7.262;2023-06-22T08:20:26;28.60;99.90
25550;DHT22;13444;50.562;7.262;2023-06-22T08:22:53;28.90;99.90
25550;DHT22;13444;50.562;7.262;2023-06-22T08:25:19;29.20;99.90
25550;DHT22;13444;50.562;7.262;2023-06-22T08:27:46;29.00;99.90
25550;DHT22;13444;50.562;7.262;2023-06-22T08:30:12;29.00;99.90
25550;DHT22;13444;50.562;7.262;2023-06-22T08:32:38;29.00;99.90
25550;DHT22;13444;50.562;7.262;2023-06-22T08:35:04;29.10;99.90
25550;DHT22;13444;50.562;7.262;2023-06-22T08:37:31;29.10;99.90
25550;DHT22;13444;50.562;7.262;2023-06-22T08:40:02;28.90;99.90
25550;DHT22;13444;50.562;7.262;2023-06-22T08:42:30;28.90;99.90
25550;DHT22;13444;50.562;7.262;2023-06-22T08:44:55;28.90;99.90
25550;DHT22;13444;50.562;7.262;2023-06-22T08:47:21;28.90;99.90
25550;DHT22;13444;50.562;7.262;2023-06-22T08:49:47;29.10;99.90
25550;DHT22;13444;50.562;7.262;2023-06-22T08:52:12;29.20;99.90
25550;DHT22;13444;50.562;7.262;2023-06-22T08:54:38;29.40;99.90
25550;DHT22;13444;50.562;7.262;2023-06-22T08:57:04;29.50;99.90
25550;DHT22;13444;50.562;7.262;2023-06-22T08:59:29;29.60;99.90
25550;DHT22;13444;50.562;7.262;2023-06-22T09:01:55;29.70;99.90
25550;DHT22;13444;50.562;7.262;2023-06-22T09:04:21;29.50;99.90
25550;DHT22;13444;50.562;7.262;2023-06-22T09:06:48;29.60;99.90
25550;DHT22;13444;50.562;7.262;2023-06-22T09:09:14;29.50;99.90
25550;DHT22;13444;50.562;7.262;2023-06-22T09:11:40;29.30;99.90
25550;DHT22;13444;50.562;7.262;2023-06-22T09:14:05;29.50;99.90
25550;DHT22;13444;50.562;7.262;2023-06-22T09:16:31;29.50;99.90
25550;DHT22;13444;50.562;7.262;2023-06-22T09:18:57;29.60;99.90
25550;DHT22;13444;50.562;7.262;2023-06-22T09:21:23;29.60;99.90
25550;DHT22;13444;50.562;7.262;2023-06-22T09:23:49;29.80;99.90
25550;DHT22;13444;50.562;7.262;2023-06-22T09:26:20;29.90;99.90
25550;DHT22;13444;50.562;7.262;2023-06-22T09:28:46;29.90;99.90
25550;DHT22;13444;50.562;7.262;2023-06-22T09:31:12;29.90;99.90
25550;DHT22;13444;50.562;7.262;2023-06-22T09:33:39;29.90;99.90
25550;DHT22;13444;50.562;7.262;2023-06-22T09:36:06;30.00;99.90
25550;DHT22;13444;50.562;7.262;2023-06-22T09:38:36;29.90;99.90
25550;DHT22;13444;50.562;7.262;2023-06-22T09:41:02;29.80;99.90
25550;DHT22;13444;50.562;7.262;2023-06-22T09:43:28;29.80;99.90
25550;DHT22;13444;50.562;7.262;2023-06-22T09:45:53;29.60;99.90
25550;DHT22;13444;50.562;7.262;2023-06-22T09:48:19;29.40;99.90
25550;DHT22;13444;50.562;7.262;2023-06-22T09:50:44;29.30;99.90
25550;DHT22;13444;50.562;7.262;2023-06-22T09:53:10;29.00;99.90
25550;DHT22;13444;50.562;7.262;2023-06-22T09:55:36;28.90;99.90
25550;DHT22;13444;50.562;7.262;2023-06-22T09:58:01;28.80;99.90
25550;DHT22;13444;50.562;7.262;2023-06-22T10:00:27;28.70;99.90
25550;DHT22;13444;50.562;7.262;2023-06-22T10:02:52;28.60;99.90
25550;DHT22;13444;50.562;7.262;2023-06-22T10:05:18;28.50;99.90
25550;DHT22;13444;50.562;7.262;2023-06-22T10:07:43;28.40;99.90
25550;DHT22;13444;50.562;7.262;2023-06-22T10:10:10;28.30;99.90
25550;DHT22;13444;50.562;7.262;2023-06-22T10:12:37;28.20;99.90
25550;DHT22;13444;50.562;7.262;2023-06-22T10:15:03;28.10;99.90
25550;DHT22;13444;50.562;7.262;2023-06-22T10:17:29;28.00;99.90
25550;DHT22;13444;50.562;7.262;2023-06-22T10:19:54;27.90;99.90
25550;DHT22;13444;50.562;7.262;2023-06-22T10:22:20;27.60;99.90
25550;DHT22;13444;50.562;7.262;2023-06-22T10:24:45;27.40;99.90
25550;DHT22;13444;50.562;7.262;2023-06-22T10:27:11;27.20;99.90
25550;DHT22;13444;50.562;7.262;2023-06-22T10:29:37;27.10;99.90
25550;DHT22;13444;50.562;7.262;2023-06-22T10:32:03;27.10;99.90
25550;DHT22;13444;50.562;7.262;2023-06-22T10:34:29;26.90;99.90
25550;DHT22;13444;50.562;7.262;2023-06-22T10:36:54;26.70;99.90
25550;DHT22;13444;50.562;7.262;2023-06-22T10:39:20;26.60;99.90
25550;DHT22;13444;50.562;7.262;2023-06-22T10:41:45;26.60;99.90
25550;DHT22;13444;50.562;7.262;2023-06-22T10:44:11;26.50;99.90
25550;DHT22;13444;50.562;7.262;2023-06-22T10:46:37;26.50;99.90
25550;DHT22;13444;50.562;7.262;2023-06-22T10:49:03;26.30;99.90
25550;DHT22;13444;50.562;7.262;2023-06-22T10:51:28;26.30;99.90
25550;DHT22;13444;50.562;7.262;2023-06-22T10:53:54;26.20;99.90
25550;DHT22;13444;50.562;7.262;2023-06-22T10:56:19;25.90;99.90
25550;DHT22;13444;50.562;7.262;2023-06-22T10:58:45;25.70;99.90
25550;DHT22;13444;50.562;7.262;2023-06-22T11:01:11;25.50;99.90
25550;DHT22;13444;50.562;7.262;2023-06-22T11:03:37;25.30;99.90
25550;DHT22;13444;50.562;7.262;2023-06-22T11:06:02;24.90;99.90
25550;DHT22;13444;50.562;7.262;2023-06-22T11:08:28;24.50;99.90
25550;DHT22;13444;50.562;7.262;2023-06-22T11:10:53;24.00;99.90
25550;DHT22;13444;50.562;7.262;2023-06-22T11:13:19;23.90;99.90
25550;DHT22;13444;50.562;7.262;2023-06-22T11:15:44;23.80;99.90
25550;DHT22;13444;50.562;7.262;2023-06-22T11:18:10;23.80;99.90
25550;DHT22;13444;50.562;7.262;2023-06-22T11:20:36;24.00;99.90
25550;DHT22;13444;50.562;7.262;2023-06-22T11:23:05;24.10;99.90
25550;DHT22;13444;50.562;7.262;2023-06-22T11:25:31;24.10;99.90
25550;DHT22;13444;50.562;7.262;2023-06-22T11:27:57;24.00;99.90
25550;DHT22;13444;50.562;7.262;2023-06-22T11:30:22;24.10;99.90
25550;DHT22;13444;50.562;7.262;2023-06-22T11:32:48;23.90;99.90
25550;DHT22;13444;50.562;7.262;2023-06-22T11:35:14;24.10;99.90
25550;DHT22;13444;50.562;7.262;2023-06-22T11:37:39;24.20;99.90
25550;DHT22;13444;50.562;7.262;2023-06-22T11:40:05;24.30;99.90
25550;DHT22;13444;50.562;7.262;2023-06-22T11:42:34;24.20;99.90
25550;DHT22;13444;50.562;7.262;2023-06-22T11:45:00;24.00;99.90
25550;DHT22;13444;50.562;7.262;2023-06-22T11:47:25;23.90;99.90
25550;DHT22;13444;50.562;7.262;2023-06-22T11:49:51;23.80;99.90
25550;DHT22;13444;50.562;7.262;2023-06-22T11:52:16;24.00;99.90
25550;DHT22;13444;50.562;7.262;2023-06-22T11:54:43;24.10;99.90
25550;DHT22;13444;50.562;7.262;2023-06-22T11:57:09;24.30;99.90
25550;DHT22;13444;50.562;7.262;2023-06-22T11:59:34;24.50;99.90
25550;DHT22;13444;50.562;7.262;2023-06-22T12:02:00;24.80;99.90
25550;DHT22;13444;50.562;7.262;2023-06-22T12:04:25;25.10;99.90
25550;DHT22;13444;50.562;7.262;2023-06-22T12:06:51;25.00;99.90
25550;DHT22;13444;50.562;7.262;2023-06-22T12:09:16;25.10;99.90
25550;DHT22;13444;50.562;7.262;2023-06-22T12:11:42;25.30;99.90
25550;DHT22;13444;50.562;7.262;2023-06-22T12:14:07;25.60;99.90
25550;DHT22;13444;50.562;7.262;2023-06-22T12:16:33;25.70;99.90
25550;DHT22;13444;50.562;7.262;2023-06-22T12:18:58;25.90;99.90
25550;DHT22;13444;50.562;7.262;2023-06-22T12:21:24;26.10;99.90
25550;DHT22;13444;50.562;7.262;2023-06-22T12:23:49;25.90;99.90
25550;DHT22;13444;50.562;7.262;2023-06-22T12:26:15;26.10;99.90
25550;DHT22;13444;50.562;7.262;2023-06-22T12:28:41;26.30;99.90
25550;DHT22;13444;50.562;7.262;2023-06-22T12:31:06;26.60;99.90
25550;DHT22;13444;50.562;7.262;2023-06-22T12:33:32;26.70;99.90
25550;DHT22;13444;50.562;7.262;2023-06-22T12:35:57;26.70;99.90
25550;DHT22;13444;50.562;7.262;2023-06-22T12:38:23;26.70;99.90
25550;DHT22;13444;50.562;7.262;2023-06-22T12:40:51;26.90;99.90
25550;DHT22;13444;50.562;7.262;2023-06-22T12:43:16;27.10;99.90
25550;DHT22;13444;50.562;7.262;2023-06-22T12:45:42;27.30;99.90
25550;DHT22;13444;50.562;7.262;2023-06-22T12:48:07;27.40;99.90
25550;DHT22;13444;50.562;7.262;2023-06-22T12:50:34;27.50;99.90
25550;DHT22;13444;50.562;7.262;2023-06-22T12:52:59;27.40;99.90
25550;DHT22;13444;50.562;7.262;2023-06-22T12:55:27;27.50;99.90
25550;DHT22;13444;50.562;7.262;2023-06-22T12:57:52;27.70;99.90
25550;DHT22;13444;50.562;7.262;2023-06-22T13:00:18;27.90;99.90
25550;DHT22;13444;50.562;7.262;2023-06-22T13:02:45;28.00;99.90
25550;DHT22;13444;50.562;7.262;2023-06-22T13:05:10;28.10;99.90
25550;DHT22;13444;50.562;7.262;2023-06-22T13:07:36;28.20;99.90
25550;DHT22;13444;50.562;7.262;2023-06-22T13:10:02;28.40;99.90
25550;DHT22;13444;50.562;7.262;2023-06-22T13:12:27;28.60;99.90
25550;DHT22;13444;50.562;7.262;2023-06-22T13:14:53;28.90;99.90
25550;DHT22;13444;50.562;7.262;2023-06-22T13:17:18;28.90;99.90
25550;DHT22;13444;50.562;7.262;2023-06-22T13:19:44;28.80;99.90
25550;DHT22;13444;50.562;7.262;2023-06-22T13:22:31;28.90;99.90
25550;DHT22;13444;50.562;7.262;2023-06-22T13:24:57;29.00;99.90
25550;DHT22;13444;50.562;7.262;2023-06-22T13:27:23;29.10;99.90
25550;DHT22;13444;50.562;7.262;2023-06-22T13:29:49;29.20;99.90
25550;DHT22;13444;50.562;7.262;2023-06-22T13:32:14;29.30;99.90
25550;DHT22;13444;50.562;7.262;2023-06-22T13:34:40;29.20;99.90
25550;DHT22;13444;50.562;7.262;2023-06-22T13:37:05;29.20;99.90
25550;DHT22;13444;50.562;7.262;2023-06-22T13:39:31;29.30;99.90
25550;DHT22;13444;50.562;7.262;2023-06-22T13:41:57;29.30;99.90
25550;DHT22;13444;50.562;7.262;2023-06-22T13:44:23;29.40;99.90
25550;DHT22;13444;50.562;7.262;2023-06-22T13:46:53;29.40;99.90
25550;DHT22;13444;50.562;7.262;2023-06-22T13:49:18;29.40;99.90
25550;DHT22;13444;50.562;7.262;2023-06-22T13:51:44;29.30;99.90
25550;DHT22;13444;50.562;7.262;2023-06-22T13:54:09;29.20;99.90
25550;DHT22;13444;50.562;7.262;2023-06-22T13:56:35;29.10;99.90
25550;DHT22;13444;50.562;7.262;2023-06-22T13:59:01;29.00;99.90
25550;DHT22;13444;50.562;7.262;2023-06-22T14:01:26;28.80;99.90
25550;DHT22;13444;50.562;7.262;2023-06-22T14:03:52;28.80;99.90
25550;DHT22;13444;50.562;7.262;2023-06-22T14:06:17;28.60;99.90
25550;DHT22;13444;50.562;7.262;2023-06-22T14:08:43;28.50;99.90
25550;DHT22;13444;50.562;7.262;2023-06-22T14:11:09;28.30;99.90
25550;DHT22;13444;50.562;7.262;2023-06-22T14:13:35;28.30;99.90
25550;DHT22;13444;50.562;7.262;2023-06-22T14:16:01;28.10;99.90
25550;DHT22;13444;50.562;7.262;2023-06-22T14:18:27;28.00;99.90
25550;DHT22;13444;50.562;7.262;2023-06-22T14:20:52;27.80;99.90
25550;DHT22;13444;50.562;7.262;2023-06-22T14:23:18;27.60;99.90
25550;DHT22;13444;50.562;7.262;2023-06-22T14:25:43;27.30;99.90
25550;DHT22;13444;50.562;7.262;2023-06-22T14:28:09;26.90;99.90
25550;DHT22;13444;50.562;7.262;2023-06-22T14:30:34;26.60;99.90
25550;DHT22;13444;50.562;7.262;2023-06-22T14:33:00;26.30;99.90
25550;DHT22;13444;50.562;7.262;2023-06-22T14:35:25;25.90;99.90
25550;DHT22;13444;50.562;7.262;2023-06-22T14:37:51;25.60;99.90
25550;DHT22;13444;50.562;7.262;2023-06-22T14:40:16;25.30;99.90
25550;DHT22;13444;50.562;7.262;2023-06-22T14:42:42;24.70;99.90
25550;DHT22;13444;50.562;7.262;2023-06-22T14:45:07;24.10;99.90
25550;DHT22;13444;50.562;7.262;2023-06-22T14:47:33;23.90;99.90
25550;DHT22;13444;50.562;7.262;2023-06-22T14:49:58;23.70;99.90
25550;DHT22;13444;50.562;7.262;2023-06-22T14:52:26;23.40;99.90
25550;DHT22;13444;50.562;7.262;2023-06-22T14:54:51;23.10;99.90
25550;DHT22;13444;50.562;7.262;2023-06-22T14:57:18;23.00;99.90
25550;DHT22;13444;50.562;7.262;2023-06-22T14:59:48;22.90;99.90
25550;DHT22;13444;50.562;7.262;2023-06-22T15:02:14;22.70;99.90
25550;DHT22;13444;50.562;7.262;2023-06-22T15:04:40;22.70;99.90
25550;DHT22;13444;50.562;7.262;2023-06-22T15:07:06;22.60;99.90
25550;DHT22;13444;50.562;7.262;2023-06-22T15:09:31;22.50;99.90
25550;DHT22;13444;50.562;7.262;2023-06-22T15:11:57;22.30;99.90
25550;DHT22;13444;50.562;7.262;2023-06-22T15:14:23;22.20;99.90
25550;DHT22;13444;50.562;7.262;2023-06-22T15:16:49;22.20;99.90
25550;DHT22;13444;50.562;7.262;2023-06-22T15:19:15;22.10;99.90
25550;DHT22;13444;50.562;7.262;2023-06-22T15:21:41;22.10;99.90
25550;DHT22;13444;50.562;7.262;2023-06-22T15:24:06;22.10;99.90
25550;DHT22;13444;50.562;7.262;2023-06-22T15:26:32;22.00;99.90
25550;DHT22;13444;50.562;7.262;2023-06-22T15:28:57;22.00;99.90